Time;durP1;ratioP1;P1;durP2;ratioP2;P2;SDS_P1;SDS_P2;PMS_P1;PMS_P2;Temp;Humidity;BMP_temperature;BMP_pressure;BME280_temperature;BME280_humidity;BME280_pressure;Samples;Min_cycle;Max_cycle;Signal;HPM_P1;HPM_P2
2023/07/29 00:01:17;;;;;;;2.67;2.30;;;20.20;99.90;;;;;;5015665;28;20568;-80
2023/07/29 00:03:46;;;;;;;3.95;2.60;;;20.10;99.90;;;;;;5019088;28;20210;-80
2023/07/29 00:06:13;;;;;;;3.80;2.88;;;20.00;99.90;;;;;;5048756;28;20210;-80
2023/07/29 00:08:40;;;;;;;2.10;1.90;;;20.00;99.90;;;;;;5027967;28;20223;-80
2023/07/29 00:11:08;;;;;;;2.33;2.13;;;19.90;99.90;;;;;;5037837;28;20199;-80
2023/07/29 00:13:35;;;;;;;4.10;2.30;;;20.00;99.90;;;;;;5053927;28;20206;-81
2023/07/29 00:16:03;;;;;;;2.55;2.35;;;19.90;99.90;;;;;;5020924;28;20211;-80
2023/07/29 00:18:31;;;;;;;4.43;2.55;;;19.90;99.90;;;;;;5015919;28;20231;-80
2023/07/29 00:20:59;;;;;;;2.58;1.80;;;19.90;99.90;;;;;;5026716;28;20203;-80
2023/07/29 00:23:27;;;;;;;2.40;2.22;;;19.90;99.90;;;;;;5031347;28;20199;-80
2023/07/29 00:25:54;;;;;;;2.55;2.35;;;19.90;99.90;;;;;;5018113;28;20199;-80
2023/07/29 00:28:22;;;;;;;2.53;2.30;;;19.90;99.90;;;;;;5050359;28;20227;-80
2023/07/29 00:30:49;;;;;;;3.47;2.47;;;19.90;99.90;;;;;;5048966;28;20203;-80
2023/07/29 00:33:17;;;;;;;2.67;2.47;;;19.90;99.90;;;;;;5009946;28;20223;-80
2023/07/29 00:35:44;;;;;;;3.50;2.78;;;19.90;99.90;;;;;;5013426;28;20210;-80
2023/07/29 00:38:13;;;;;;;4.65;2.80;;;19.90;99.90;;;;;;5013148;28;20234;-80
2023/07/29 00:40:40;;;;;;;4.13;3.47;;;19.90;99.90;;;;;;5045034;28;20200;-80
2023/07/29 00:43:08;;;;;;;2.78;2.58;;;19.90;99.90;;;;;;5018347;28;20202;-81
2023/07/29 00:45:57;;;;;;;3.67;2.80;;;19.90;99.90;;;;;;5046792;28;20221;-80
2023/07/29 00:48:25;;;;;;;4.45;3.20;;;19.90;99.90;;;;;;5027482;28;20217;-80
2023/07/29 00:50:52;;;;;;;3.60;3.20;;;20.00;99.90;;;;;;5038343;28;20197;-80
2023/07/29 00:53:21;;;;;;;4.28;3.10;;;20.00;99.90;;;;;;5030704;28;20229;-80
2023/07/29 00:55:51;;;;;;;3.70;3.33;;;20.00;99.90;;;;;;5029994;28;20198;-80
2023/07/29 00:58:18;;;;;;;3.50;3.20;;;20.00;99.90;;;;;;5029939;28;20229;-80
2023/07/29 01:00:46;;;;;;;6.75;3.47;;;20.00;99.90;;;;;;5032768;28;20198;-80
2023/07/29 01:03:14;;;;;;;3.80;3.40;;;20.00;99.90;;;;;;5025109;28;20206;-80
2023/07/29 01:06:00;;;;;;;4.60;3.03;;;20.00;99.90;;;;;;5030145;28;20534;-80
2023/07/29 01:08:38;;;;;;;3.20;3.00;;;20.00;99.90;;;;;;5044069;28;20597;-81
2023/07/29 01:11:16;;;;;;;3.53;3.22;;;19.90;99.90;;;;;;5026956;28;20205;-80
2023/07/29 01:13:48;;;;;;;3.53;3.22;;;20.00;99.90;;;;;;5027968;28;20226;-80
2023/07/29 01:16:21;;;;;;;3.63;3.30;;;19.90;99.90;;;;;;5030688;28;20202;-80
2023/07/29 01:18:53;;;;;;;3.42;3.13;;;19.90;99.90;;;;;;5009974;28;20233;-80
2023/07/29 01:21:22;;;;;;;3.90;3.60;;;19.90;99.90;;;;;;5022517;28;20206;-80
2023/07/29 01:23:53;;;;;;;4.18;3.72;;;19.90;99.90;;;;;;5021290;28;20192;-80
2023/07/29 01:26:20;;;;;;;3.95;3.55;;;19.80;99.90;;;;;;5048629;28;20558;-80
2023/07/29 01:28:48;;;;;;;4.35;3.75;;;19.80;99.90;;;;;;5045432;28;20223;-80
2023/07/29 01:31:24;;;;;;;3.97;3.65;;;19.90;99.90;;;;;;5046442;28;20557;-81
2023/07/29 01:33:58;;;;;;;4.30;3.90;;;19.90;99.90;;;;;;5022151;28;20226;-80
2023/07/29 01:36:30;;;;;;;3.50;3.20;;;19.90;99.90;;;;;;5033914;28;20679;-80
2023/07/29 01:39:00;;;;;;;3.80;3.50;;;19.90;99.90;;;;;;5041498;28;20689;-80
2023/07/29 01:41:28;;;;;;;3.45;3.15;;;19.90;99.90;;;;;;5010837;28;20207;-80
2023/07/29 01:43:58;;;;;;;3.42;3.13;;;19.90;99.90;;;;;;5016498;28;20203;-80
2023/07/29 01:46:26;;;;;;;3.60;3.20;;;19.90;99.90;;;;;;5011382;28;20641;-80
2023/07/29 01:48:53;;;;;;;3.83;3.15;;;19.90;99.90;;;;;;5047643;28;20225;-80
2023/07/29 01:51:21;;;;;;;3.47;2.95;;;19.80;99.90;;;;;;5004126;28;20274;-80
2023/07/29 01:53:49;;;;;;;2.88;2.67;;;19.90;99.90;;;;;;5013491;28;20222;-80
2023/07/29 01:56:18;;;;;;;3.20;2.90;;;19.90;99.90;;;;;;5047927;28;20203;-80
2023/07/29 01:58:53;;;;;;;3.20;2.90;;;19.90;99.90;;;;;;5009994;28;20218;-80
2023/07/29 02:01:20;;;;;;;3.25;2.95;;;19.90;99.90;;;;;;5011528;28;20207;-81
2023/07/29 02:03:53;;;;;;;4.68;3.15;;;19.90;99.90;;;;;;5044646;28;20195;-80
2023/07/29 02:06:20;;;;;;;3.65;3.33;;;19.90;99.90;;;;;;5032381;28;20552;-80
2023/07/29 02:08:48;;;;;;;3.80;3.20;;;19.90;99.90;;;;;;5047998;28;20227;-80
2023/07/29 02:11:15;;;;;;;3.15;2.85;;;19.90;99.90;;;;;;5047935;28;20203;-80
2023/07/29 02:13:44;;;;;;;4.00;2.80;;;19.90;99.90;;;;;;5049120;28;20578;-80
2023/07/29 02:16:11;;;;;;;3.05;2.67;;;19.90;99.90;;;;;;5006448;28;20222;-80
2023/07/29 02:18:39;;;;;;;3.53;3.22;;;19.90;99.90;;;;;;5019109;28;20591;-80
2023/07/29 02:21:06;;;;;;;2.95;2.75;;;19.80;99.90;;;;;;5047137;28;20199;-80
2023/07/29 02:23:34;;;;;;;3.40;3.20;;;19.80;99.90;;;;;;5049270;28;20195;-80
2023/07/29 02:26:01;;;;;;;3.53;3.22;;;19.70;99.90;;;;;;5048331;28;20191;-80
2023/07/29 02:28:29;;;;;;;3.33;3.03;;;19.70;99.90;;;;;;5013428;28;20219;-80
2023/07/29 02:31:16;;;;;;;2.90;2.70;;;19.70;99.90;;;;;;5016265;28;20200;-80
2023/07/29 02:33:43;;;;;;;4.22;2.67;;;19.80;99.90;;;;;;5010494;28;20210;-80
2023/07/29 02:36:13;;;;;;;3.05;2.85;;;19.80;99.90;;;;;;5029713;28;20295;-80
2023/07/29 02:38:40;;;;;;;3.20;2.90;;;19.70;99.90;;;;;;5007275;28;20239;-80
2023/07/29 02:41:09;;;;;;;3.70;3.22;;;19.70;99.90;;;;;;5020826;28;20190;-80
2023/07/29 02:43:37;;;;;;;3.42;3.13;;;19.70;99.90;;;;;;5012466;28;20554;-80
2023/07/29 02:46:04;;;;;;;4.10;3.17;;;19.70;99.90;;;;;;5030264;28;20226;-80
2023/07/29 02:48:33;;;;;;;3.35;3.15;;;19.70;99.90;;;;;;5017340;28;20234;-80
2023/07/29 02:51:00;;;;;;;3.10;2.90;;;19.70;99.90;;;;;;5011418;28;20195;-80
2023/07/29 02:53:28;;;;;;;4.00;3.35;;;19.70;99.90;;;;;;5015095;28;20227;-80
2023/07/29 02:55:55;;;;;;;3.97;3.67;;;19.60;99.90;;;;;;5016811;28;20199;-80
2023/07/29 02:58:23;;;;;;;4.25;3.78;;;19.60;99.90;;;;;;5011190;28;20215;-80
2023/07/29 03:00:51;;;;;;;4.00;3.70;;;19.60;99.90;;;;;;5029550;28;20204;-80
2023/07/29 03:03:19;;;;;;;4.68;3.83;;;19.70;99.90;;;;;;5000405;28;20203;-80
2023/07/29 03:05:48;;;;;;;4.05;3.20;;;19.60;99.90;;;;;;5016601;28;20210;-80
2023/07/29 03:08:16;;;;;;;5.05;3.70;;;19.60;99.90;;;;;;5015187;28;20219;-80
2023/07/29 03:10:54;;;;;;;3.30;3.10;;;19.60;99.90;;;;;;5006252;28;20203;-80
2023/07/29 03:13:22;;;;;;;3.58;3.28;;;19.60;99.90;;;;;;5017200;28;20237;-80
2023/07/29 03:15:49;;;;;;;3.72;3.42;;;19.60;99.90;;;;;;5012382;28;20206;-80
2023/07/29 03:18:17;;;;;;;3.50;3.20;;;19.60;99.90;;;;;;5017004;28;20211;-80
2023/07/29 03:20:44;;;;;;;3.15;2.80;;;19.60;99.90;;;;;;5008623;28;20212;-80
2023/07/29 03:23:13;;;;;;;4.07;3.78;;;19.60;99.90;;;;;;5050183;28;20191;-80
2023/07/29 03:25:40;;;;;;;3.42;3.13;;;19.60;99.90;;;;;;5014636;28;20195;-80
2023/07/29 03:28:08;;;;;;;3.13;2.92;;;19.70;99.90;;;;;;5023524;28;20225;-80
2023/07/29 03:30:35;;;;;;;3.72;3.10;;;19.70;99.90;;;;;;5046066;28;20199;-80
2023/07/29 03:33:04;;;;;;;2.97;2.78;;;19.70;99.90;;;;;;5026449;28;20191;-80
2023/07/29 03:35:31;;;;;;;3.78;2.92;;;19.70;99.90;;;;;;5051966;28;20217;-80
2023/07/29 03:37:59;;;;;;;3.25;2.90;;;19.70;99.90;;;;;;5007800;28;20223;-80
2023/07/29 03:40:28;;;;;;;6.20;3.42;;;19.70;99.90;;;;;;5016335;28;20207;-80
2023/07/29 03:42:55;;;;;;;3.78;3.45;;;19.70;99.90;;;;;;5016803;28;20195;-80
2023/07/29 03:45:22;;;;;;;3.88;3.20;;;19.60;99.90;;;;;;5009943;28;20203;-80
2023/07/29 03:47:50;;;;;;;3.67;3.13;;;19.70;99.90;;;;;;5046838;28;20686;-80
2023/07/29 03:50:17;;;;;;;3.95;3.55;;;19.60;99.90;;;;;;5010083;28;20195;-80
2023/07/29 03:52:45;;;;;;;5.43;3.65;;;19.60;99.90;;;;;;5026945;28;20214;-80
2023/07/29 03:55:12;;;;;;;5.82;3.53;;;19.70;99.90;;;;;;5049007;28;20207;-79
2023/07/29 03:57:41;;;;;;;4.57;3.92;;;19.60;99.90;;;;;;5045593;28;20226;-80
2023/07/29 04:00:10;;;;;;;4.15;3.83;;;19.60;99.90;;;;;;5009567;28;20211;-80
2023/07/29 04:02:42;;;;;;;4.97;4.57;;;19.60;99.90;;;;;;5030381;28;20208;-80
2023/07/29 04:05:11;;;;;;;6.18;4.18;;;19.60;99.90;;;;;;5030589;28;20282;-80
2023/07/29 04:07:39;;;;;;;6.68;5.10;;;19.60;99.90;;;;;;5005480;28;20234;-80
2023/07/29 04:10:08;;;;;;;5.40;4.82;;;19.60;99.90;;;;;;5015120;28;20195;-80
2023/07/29 04:12:35;;;;;;;5.63;4.05;;;19.60;99.90;;;;;;5011591;28;20218;-80
2023/07/29 04:15:05;;;;;;;4.82;4.32;;;19.60;99.90;;;;;;5039941;28;20215;-80
2023/07/29 04:17:32;;;;;;;4.50;4.20;;;19.60;99.90;;;;;;5026691;28;20215;-80
2023/07/29 04:20:00;;;;;;;4.97;4.55;;;19.60;99.90;;;;;;5043657;28;20557;-80
2023/07/29 04:22:33;;;;;;;4.80;4.20;;;19.70;99.90;;;;;;5015417;28;20668;-80
2023/07/29 04:25:01;;;;;;;4.05;3.75;;;19.70;99.90;;;;;;5009993;28;20206;-80
2023/07/29 04:27:28;;;;;;;6.32;4.57;;;19.70;99.90;;;;;;5015840;28;20238;-80
2023/07/29 04:29:56;;;;;;;5.90;4.30;;;19.60;99.90;;;;;;5001424;28;20206;-80
2023/07/29 04:32:25;;;;;;;4.78;4.30;;;19.60;99.90;;;;;;5028936;28;20198;-80
2023/07/29 04:34:53;;;;;;;6.55;4.50;;;19.60;99.90;;;;;;5006883;28;20204;-80
2023/07/29 04:37:20;;;;;;;5.65;5.22;;;19.60;99.90;;;;;;5006534;28;20202;-80
2023/07/29 04:39:48;;;;;;;7.95;5.07;;;19.70;99.90;;;;;;5005054;28;20207;-80
2023/07/29 04:42:15;;;;;;;5.65;5.00;;;19.70;99.90;;;;;;5044025;28;20214;-80
2023/07/29 04:44:43;;;;;;;7.00;5.53;;;19.70;99.90;;;;;;5028071;28;20262;-81
2023/07/29 04:47:11;;;;;;;6.45;5.85;;;19.60;99.90;;;;;;5040808;28;20199;-80
2023/07/29 04:49:39;;;;;;;6.75;6.05;;;19.70;99.90;;;;;;5011787;28;20680;-80
2023/07/29 04:52:07;;;;;;;8.15;5.95;;;19.70;99.90;;;;;;5015265;28;20199;-80
2023/07/29 04:54:35;;;;;;;6.55;5.95;;;19.70;99.90;;;;;;5004641;28;20218;-80
2023/07/29 04:57:02;;;;;;;8.07;6.28;;;19.60;99.90;;;;;;5011666;28;20218;-80
2023/07/29 04:59:30;;;;;;;6.60;6.00;;;19.60;99.90;;;;;;5009551;28;20219;-80
2023/07/29 05:01:57;;;;;;;7.00;6.35;;;19.50;99.90;;;;;;5007787;28;20206;-80
2023/07/29 05:04:25;;;;;;;7.18;6.47;;;19.50;99.90;;;;;;5025353;28;20187;-80
2023/07/29 05:06:53;;;;;;;6.22;5.20;;;19.50;99.90;;;;;;5043723;28;20206;-80
2023/07/29 05:09:21;;;;;;;5.57;5.07;;;19.40;99.90;;;;;;5043120;28;20219;-80
2023/07/29 05:11:49;;;;;;;5.72;5.22;;;19.40;99.90;;;;;;5011830;28;20191;-80
2023/07/29 05:14:18;;;;;;;5.00;4.60;;;19.40;99.90;;;;;;5031561;28;20219;-80
2023/07/29 05:16:46;;;;;;;4.90;4.50;;;19.40;99.90;;;;;;5001729;28;20206;-80
2023/07/29 05:19:13;;;;;;;6.10;4.75;;;19.40;99.90;;;;;;5012663;28;20304;-80
2023/07/29 05:21:41;;;;;;;5.78;5.28;;;19.30;99.90;;;;;;5010234;28;20199;-80
2023/07/29 05:24:14;;;;;;;6.03;5.38;;;19.30;99.90;;;;;;5051304;28;20198;-80
2023/07/29 05:27:02;;;;;;;8.15;6.80;;;19.30;99.90;;;;;;5008160;28;20206;-80
2023/07/29 05:29:29;;;;;;;10.30;8.05;;;19.30;99.90;;;;;;5009301;28;20222;-80
2023/07/29 05:32:08;;;;;;;8.10;7.28;;;19.30;99.90;;;;;;5026913;28;20191;-80
2023/07/29 05:34:35;;;;;;;8.60;7.60;;;19.40;99.90;;;;;;5046301;28;20218;-80
2023/07/29 05:37:03;;;;;;;8.88;7.93;;;19.40;99.90;;;;;;5048795;28;20195;-80
2023/07/29 05:39:33;;;;;;;10.35;8.38;;;19.40;99.90;;;;;;5014575;28;20720;-80
2023/07/29 05:42:02;;;;;;;9.52;8.50;;;19.30;99.90;;;;;;5050331;28;20199;-80
2023/07/29 05:44:30;;;;;;;9.82;8.82;;;19.40;99.90;;;;;;5014893;28;20195;-79
2023/07/29 05:46:57;;;;;;;11.05;8.57;;;19.40;99.90;;;;;;5033770;28;21700;-79
2023/07/29 05:49:25;;;;;;;10.75;9.73;;;19.50;99.90;;;;;;5030187;28;20302;-82
2023/07/29 05:52:49;;;;;;;9.68;8.68;;;19.40;99.90;;;;;;5032576;28;20672;-80
2023/07/29 05:55:18;;;;;;;12.73;9.98;;;19.40;99.90;;;;;;5005175;28;20218;-80
2023/07/29 05:57:45;;;;;;;10.85;9.85;;;19.40;99.90;;;;;;5050505;28;20223;-80
2023/07/29 06:00:19;;;;;;;11.27;10.18;;;19.30;99.90;;;;;;5023532;28;20203;-80
2023/07/29 06:03:15;;;;;;;12.55;11.25;;;19.30;99.90;;;;;;5016674;28;20199;-79
2023/07/29 06:05:42;;;;;;;11.05;9.95;;;19.30;99.90;;;;;;5030669;28;20198;-79
2023/07/29 06:08:10;;;;;;;11.40;10.15;;;19.30;99.90;;;;;;5017382;28;20230;-80
2023/07/29 06:10:38;;;;;;;9.65;8.65;;;19.30;99.90;;;;;;5015609;28;20199;-79
2023/07/29 06:13:06;;;;;;;8.73;7.93;;;19.20;99.90;;;;;;5017888;28;20669;-81
2023/07/29 06:15:33;;;;;;;7.85;7.10;;;19.20;99.90;;;;;;5026736;28;20916;-79
2023/07/29 06:18:01;;;;;;;6.45;5.85;;;19.20;99.90;;;;;;5015290;28;20222;-79
2023/07/29 06:20:35;;;;;;;6.68;5.35;;;19.30;99.90;;;;;;5032924;28;20199;-79
2023/07/29 06:23:03;;;;;;;6.22;5.60;;;19.40;99.90;;;;;;5045975;28;20201;-79
2023/07/29 06:25:31;;;;;;;8.02;5.25;;;19.40;99.90;;;;;;5021253;28;20198;-79
2023/07/29 06:27:59;;;;;;;5.20;4.70;;;19.50;99.90;;;;;;5019660;28;20227;-79
2023/07/29 06:30:28;;;;;;;5.95;4.80;;;19.40;99.90;;;;;;5014035;28;20214;-78
2023/07/29 06:32:55;;;;;;;5.15;4.63;;;19.30;99.90;;;;;;5015348;28;20198;-79
2023/07/29 06:35:23;;;;;;;5.90;5.18;;;19.30;99.90;;;;;;5016232;28;20213;-79
2023/07/29 06:37:51;;;;;;;7.20;4.38;;;19.40;99.90;;;;;;5012897;28;20713;-79
2023/07/29 06:40:19;;;;;;;4.35;3.95;;;19.40;99.90;;;;;;5015099;28;20665;-80
2023/07/29 06:42:46;;;;;;;4.72;4.30;;;19.30;99.90;;;;;;5040340;28;20203;-79
2023/07/29 06:45:16;;;;;;;4.10;3.47;;;19.30;99.90;;;;;;5020048;28;20198;-82
2023/07/29 06:47:43;;;;;;;4.15;3.42;;;19.30;99.90;;;;;;5030279;28;20223;-82
2023/07/29 06:50:11;;;;;;;4.00;3.13;;;19.40;99.90;;;;;;5018505;28;20203;-82
2023/07/29 06:52:44;;;;;;;3.08;2.88;;;19.30;99.90;;;;;;5038746;28;20219;-82
2023/07/29 06:55:12;;;;;;;2.95;2.70;;;19.30;99.90;;;;;;5032366;28;20537;-82
2023/07/29 06:57:39;;;;;;;4.45;2.25;;;19.30;99.90;;;;;;5027693;28;20223;-82
2023/07/29 07:00:22;;;;;;;2.38;2.03;;;19.40;99.90;;;;;;5014896;28;20207;-82
2023/07/29 07:03:05;;;;;;;2.88;2.60;;;19.30;99.90;;;;;;5013984;28;20214;-82
2023/07/29 07:05:32;;;;;;;2.50;2.13;;;19.40;99.90;;;;;;4995512;28;20207;-81
2023/07/29 07:08:00;;;;;;;3.25;2.20;;;19.20;99.90;;;;;;5047660;28;20234;-81
2023/07/29 07:10:28;;;;;;;2.72;2.10;;;19.20;99.90;;;;;;5013529;28;20206;-81
2023/07/29 07:12:55;;;;;;;2.38;2.17;;;19.10;99.90;;;;;;5055389;28;20217;-81
2023/07/29 07:15:25;;;;;;;2.13;1.92;;;19.10;99.90;;;;;;5041751;28;20215;-81
2023/07/29 07:17:53;;;;;;;2.15;1.80;;;19.10;99.90;;;;;;5030234;28;20215;-80
2023/07/29 07:20:22;;;;;;;3.70;2.25;;;19.10;99.90;;;;;;5025988;28;20200;-80
2023/07/29 07:22:50;;;;;;;4.13;2.20;;;19.10;99.90;;;;;;5030996;28;20202;-80
2023/07/29 07:25:17;;;;;;;4.13;1.92;;;19.10;99.90;;;;;;5029391;28;20545;-80
2023/07/29 07:27:45;;;;;;;2.88;2.10;;;19.30;99.90;;;;;;5033041;28;20231;-80
2023/07/29 07:30:13;;;;;;;2.92;1.80;;;19.10;99.90;;;;;;5014139;28;20195;-80
2023/07/29 07:32:41;;;;;;;2.42;2.20;;;19.20;99.90;;;;;;5026361;28;20669;-81
2023/07/29 07:35:09;;;;;;;2.28;1.80;;;19.20;99.90;;;;;;5035785;28;20214;-81
2023/07/29 07:37:36;;;;;;;2.65;1.80;;;19.20;99.90;;;;;;5037801;28;20219;-80
2023/07/29 07:40:05;;;;;;;2.70;1.85;;;19.30;99.90;;;;;;5006743;28;20195;-81
2023/07/29 07:42:32;;;;;;;1.70;1.60;;;19.40;99.90;;;;;;5016584;28;20208;-80
2023/07/29 07:44:59;;;;;;;2.30;2.10;;;19.50;99.90;;;;;;5062098;28;20199;-81
2023/07/29 07:47:27;;;;;;;2.05;1.85;;;19.70;99.90;;;;;;5022259;28;20210;-80
2023/07/29 07:49:56;;;;;;;2.10;1.80;;;19.60;99.90;;;;;;5017755;28;20202;-81
2023/07/29 07:52:23;;;;;;;2.22;2.03;;;19.60;99.90;;;;;;5048202;28;20191;-80
2023/07/29 07:54:53;;;;;;;1.88;1.65;;;19.50;99.90;;;;;;5031959;28;20203;-81
2023/07/29 07:57:21;;;;;;;4.38;1.73;;;19.70;99.90;;;;;;4978131;28;1305774;-80
2023/07/29 07:59:49;;;;;;;1.98;1.48;;;19.70;99.90;;;;;;5057489;28;20672;-80
2023/07/29 08:02:16;;;;;;;1.88;1.38;;;19.70;99.90;;;;;;5007858;28;20203;-80
2023/07/29 08:04:43;;;;;;;1.65;1.50;;;19.80;99.90;;;;;;5016256;28;20203;-81
2023/07/29 08:07:13;;;;;;;1.60;1.50;;;20.00;99.90;;;;;;5032418;28;20195;-81
2023/07/29 08:09:40;;;;;;;1.85;1.58;;;20.10;99.90;;;;;;5019160;28;20203;-81
2023/07/29 08:12:08;;;;;;;2.60;1.58;;;20.30;99.90;;;;;;5036373;28;20562;-81
2023/07/29 08:14:36;;;;;;;3.05;1.77;;;20.10;99.90;;;;;;5016036;28;20203;-81
2023/07/29 08:17:03;;;;;;;1.88;1.60;;;20.10;99.90;;;;;;5042407;28;20223;-80
2023/07/29 08:19:38;;;;;;;1.70;1.60;;;20.00;99.90;;;;;;5006298;28;20218;-80
2023/07/29 08:22:06;;;;;;;2.08;1.23;;;20.10;99.90;;;;;;5032562;28;20269;-80
2023/07/29 08:24:35;;;;;;;2.25;1.33;;;20.00;99.90;;;;;;5018194;28;20204;-81
2023/07/29 08:27:05;;;;;;;1.90;1.33;;;20.20;99.90;;;;;;5028518;28;20550;-81
2023/07/29 08:29:33;;;;;;;1.33;1.20;;;20.30;99.90;;;;;;5015952;28;20234;-80
2023/07/29 08:32:02;;;;;;;2.78;2.03;;;20.40;99.90;;;;;;5014986;28;20983;-81
2023/07/29 08:34:29;;;;;;;3.30;1.60;;;20.30;99.90;;;;;;5052297;28;20206;-81
2023/07/29 08:36:57;;;;;;;2.47;1.60;;;20.20;99.90;;;;;;5033887;28;20226;-81
2023/07/29 08:39:24;;;;;;;1.40;1.08;;;20.20;99.90;;;;;;5029661;28;20727;-81
2023/07/29 08:42:01;;;;;;;1.38;1.20;;;20.00;99.90;;;;;;5013041;28;20649;-81
2023/07/29 08:44:35;;;;;;;1.83;1.55;;;20.00;99.90;;;;;;5009190;28;20214;-81
2023/07/29 08:47:05;;;;;;;2.92;1.70;;;20.00;99.90;;;;;;5041421;28;20203;-80
2023/07/29 08:49:33;;;;;;;2.92;1.67;;;20.10;99.90;;;;;;5005127;28;20215;-80
2023/07/29 08:52:00;;;;;;;2.60;1.50;;;20.20;99.90;;;;;;5040048;28;20199;-81
2023/07/29 08:54:28;;;;;;;1.60;1.50;;;20.30;99.90;;;;;;5016816;28;20203;-80
2023/07/29 08:56:57;;;;;;;2.20;2.00;;;20.40;99.90;;;;;;5046905;28;20230;-81
2023/07/29 08:59:26;;;;;;;2.45;2.20;;;20.60;99.90;;;;;;5016062;28;20237;-80
2023/07/29 09:01:57;;;;;;;2.70;2.50;;;20.50;99.90;;;;;;5009407;28;20219;-80
2023/07/29 09:04:24;;;;;;;2.83;2.55;;;20.70;99.90;;;;;;5028931;28;20199;-80
2023/07/29 09:06:54;;;;;;;2.08;1.60;;;20.80;99.90;;;;;;5038967;28;20187;-80
2023/07/29 09:09:22;;;;;;;1.80;1.70;;;20.90;99.90;;;;;;5041696;28;20230;-80
2023/07/29 09:11:49;;;;;;;1.83;1.58;;;20.80;99.90;;;;;;5033044;28;20211;-80
2023/07/29 09:14:19;;;;;;;2.03;1.77;;;20.70;99.90;;;;;;5028894;28;20195;-80
2023/07/29 09:16:47;;;;;;;3.30;2.05;;;20.60;99.90;;;;;;5022614;28;20214;-80
2023/07/29 09:19:14;;;;;;;2.15;1.80;;;20.50;99.90;;;;;;5018581;28;20571;-80
2023/07/29 09:21:43;;;;;;;2.35;2.15;;;20.60;99.90;;;;;;5032152;28;20199;-80
2023/07/29 09:24:10;;;;;;;1.40;1.27;;;20.80;99.90;;;;;;5057565;28;20195;-80
2023/07/29 09:26:39;;;;;;;1.70;1.60;;;20.80;99.90;;;;;;5018325;28;20191;-80
2023/07/29 09:29:06;;;;;;;1.90;1.80;;;20.90;99.90;;;;;;5015689;28;20230;-80
2023/07/29 09:31:35;;;;;;;2.70;2.17;;;21.10;99.90;;;;;;5034704;28;20647;-80
2023/07/29 09:34:04;;;;;;;2.47;2.28;;;21.00;99.90;;;;;;5038917;28;20198;-80
2023/07/29 09:36:33;;;;;;;1.92;1.60;;;21.10;99.90;;;;;;5070368;28;20221;-80
2023/07/29 09:39:00;;;;;;;1.75;1.50;;;21.20;99.90;;;;;;5069683;28;20226;-80
2023/07/29 09:41:30;;;;;;;1.73;1.50;;;21.10;99.90;;;;;;5037048;28;20211;-80
2023/07/29 09:43:59;;;;;;;1.33;1.23;;;21.20;99.90;;;;;;5018585;28;20210;-80
2023/07/29 09:46:32;;;;;;;3.30;1.60;;;21.30;99.90;;;;;;5031331;28;20199;-80
2023/07/29 09:49:02;;;;;;;1.40;1.30;;;21.30;99.90;;;;;;4997654;28;20584;-80
2023/07/29 09:51:29;;;;;;;2.08;1.85;;;21.30;99.90;;;;;;5030470;28;20204;-80
2023/07/29 09:53:58;;;;;;;2.22;1.75;;;21.50;99.90;;;;;;5017642;28;20214;-80
2023/07/29 09:56:27;;;;;;;2.13;1.90;;;21.50;99.90;;;;;;5035701;28;20223;-80
2023/07/29 09:58:57;;;;;;;1.98;1.80;;;21.50;99.90;;;;;;5035573;28;20223;-80
2023/07/29 10:01:25;;;;;;;4.10;2.03;;;21.40;99.90;;;;;;5063271;28;20195;-80
2023/07/29 10:03:56;;;;;;;2.05;1.85;;;21.30;99.90;;;;;;5041966;28;20199;-80
2023/07/29 10:06:25;;;;;;;1.75;1.65;;;21.40;99.90;;;;;;5030006;28;20569;-80
2023/07/29 10:08:53;;;;;;;1.60;1.50;;;21.20;99.90;;;;;;5036992;28;20207;-80
2023/07/29 10:11:22;;;;;;;2.53;1.67;;;21.20;99.90;;;;;;5036166;28;20627;-80
2023/07/29 10:13:51;;;;;;;1.70;1.60;;;21.20;99.90;;;;;;5025144;28;20206;-80
2023/07/29 10:16:19;;;;;;;2.10;1.90;;;21.10;99.90;;;;;;5037248;28;20187;-80
2023/07/29 10:18:47;;;;;;;1.77;1.63;;;21.20;99.90;;;;;;5051079;28;20219;-80
2023/07/29 10:21:15;;;;;;;2.10;1.88;;;21.20;99.90;;;;;;5018628;28;20207;-80
2023/07/29 10:23:57;;;;;;;2.05;1.65;;;21.40;99.90;;;;;;5020925;28;20210;-81
2023/07/29 10:26:26;;;;;;;1.75;1.65;;;21.50;99.90;;;;;;5012672;28;20218;-81
2023/07/29 10:29:00;;;;;;;1.50;1.40;;;21.50;99.90;;;;;;5035285;28;20219;-81
2023/07/29 10:31:34;;;;;;;3.03;1.45;;;21.70;99.90;;;;;;5035833;28;20199;-79
2023/07/29 10:34:02;;;;;;;1.65;1.40;;;21.80;99.90;;;;;;5058860;28;20207;-80
2023/07/29 10:36:33;;;;;;;3.15;1.33;;;21.90;99.90;;;;;;5021559;28;20211;-80
2023/07/29 10:39:51;;;;;;;;;;;;;;;;;;;;;
2023/07/29 10:42:58;;;;;;;1.40;1.30;;;21.90;99.90;;;;;;4952953;28;20212;-80
2023/07/29 10:45:59;;;;;;;1.40;1.30;;;21.90;99.90;;;;;;4934229;29;20232;-80
2023/07/29 10:49:35;;;;;;;;;;;;;;;;;;;;;
2023/07/29 10:52:03;;;;;;;1.70;1.45;;;22.00;99.90;;;;;;4967092;28;20661;-80
2023/07/29 10:54:30;;;;;;;1.33;1.23;;;21.90;99.90;;;;;;5052201;28;20203;-80
2023/07/29 10:56:59;;;;;;;1.52;1.30;;;22.00;99.90;;;;;;5020209;28;20230;-80
2023/07/29 10:59:34;;;;;;;2.35;1.42;;;22.00;99.90;;;;;;5016452;28;20219;-81
2023/07/29 11:02:12;;;;;;;2.55;1.42;;;21.90;99.90;;;;;;5014270;28;20209;-80
2023/07/29 11:04:48;;;;;;;1.73;1.63;;;21.50;99.90;;;;;;5039915;28;20199;-80
2023/07/29 11:07:28;;;;;;;2.22;1.90;;;21.70;99.90;;;;;;5024951;28;20202;-80
2023/07/29 11:10:06;;;;;;;1.75;1.65;;;21.70;99.90;;;;;;5020159;28;20283;-80
2023/07/29 11:12:42;;;;;;;2.28;1.80;;;21.70;99.90;;;;;;5019005;28;20206;-81
2023/07/29 11:15:16;;;;;;;1.70;1.60;;;21.80;99.90;;;;;;5030097;28;20214;-80
2023/07/29 11:17:45;;;;;;;2.00;1.63;;;21.70;99.90;;;;;;5040857;28;20230;-80
2023/07/29 11:20:14;;;;;;;2.28;1.63;;;22.10;99.90;;;;;;5019037;28;20199;-80
2023/07/29 11:22:42;;;;;;;1.83;1.73;;;22.30;99.90;;;;;;5015151;28;20653;-80
2023/07/29 11:25:11;;;;;;;1.80;1.70;;;22.40;99.90;;;;;;5047907;28;20210;-80
2023/07/29 11:27:38;;;;;;;2.38;1.92;;;22.20;99.90;;;;;;5050250;28;20214;-81
2023/07/29 11:30:08;;;;;;;2.10;2.00;;;22.20;99.90;;;;;;5032465;28;20195;-80
2023/07/29 11:32:36;;;;;;;2.38;2.17;;;22.40;99.90;;;;;;5010402;28;20203;-80
2023/07/29 11:35:11;;;;;;;3.55;2.22;;;22.60;99.90;;;;;;5008349;28;20203;-81
2023/07/29 11:37:40;;;;;;;2.20;2.10;;;22.60;99.90;;;;;;5016595;28;20249;-81
2023/07/29 11:40:10;;;;;;;2.03;1.92;;;22.50;99.90;;;;;;5041908;28;20206;-81
2023/07/29 11:42:39;;;;;;;2.60;2.40;;;22.50;99.90;;;;;;5043975;28;20689;-81
2023/07/29 11:45:09;;;;;;;1.98;1.88;;;22.40;99.90;;;;;;5019769;28;20214;-81
2023/07/29 11:47:37;;;;;;;3.47;2.08;;;22.30;99.90;;;;;;5051251;28;20215;-81
2023/07/29 11:50:05;;;;;;;3.85;2.30;;;22.40;99.90;;;;;;5033694;28;20660;-80
2023/07/29 11:52:34;;;;;;;2.13;1.83;;;22.60;99.90;;;;;;5019038;28;20217;-80
2023/07/29 11:55:06;;;;;;;1.58;1.40;;;22.80;99.90;;;;;;5033582;28;20202;-80
2023/07/29 11:57:37;;;;;;;4.22;1.50;;;22.60;99.90;;;;;;5017458;28;20223;-80
2023/07/29 12:00:06;;;;;;;2.20;1.25;;;22.40;99.90;;;;;;5050321;28;20198;-80
2023/07/29 12:02:39;;;;;;;1.92;1.58;;;22.50;99.90;;;;;;5038768;28;20222;-80
2023/07/29 12:05:09;;;;;;;1.20;1.10;;;22.40;99.90;;;;;;5036624;28;20191;-80
2023/07/29 12:07:40;;;;;;;1.88;1.25;;;22.50;99.90;;;;;;5033824;28;20227;-80
2023/07/29 12:10:08;;;;;;;1.35;1.23;;;23.00;99.90;;;;;;5024750;28;20203;-80
2023/07/29 12:12:41;;;;;;;3.38;1.90;;;23.50;99.90;;;;;;5019190;28;20203;-80
2023/07/29 12:15:10;;;;;;;2.05;1.83;;;23.40;99.90;;;;;;5035112;28;20183;-80
2023/07/29 12:17:40;;;;;;;2.95;1.65;;;23.40;99.90;;;;;;5029277;28;20241;-80
2023/07/29 12:20:10;;;;;;;2.63;1.63;;;23.40;99.90;;;;;;5046055;28;20547;-80
2023/07/29 12:22:39;;;;;;;2.47;1.67;;;23.40;99.90;;;;;;4999172;28;20567;-80
2023/07/29 12:25:07;;;;;;;1.55;1.42;;;23.50;99.90;;;;;;5016020;28;20195;-80
2023/07/29 12:27:35;;;;;;;1.40;1.30;;;23.40;99.90;;;;;;5014532;28;20673;-80
2023/07/29 12:30:04;;;;;;;2.47;1.52;;;23.40;99.90;;;;;;5022151;28;20217;-80
2023/07/29 12:32:31;;;;;;;3.03;1.35;;;23.50;99.90;;;;;;5020796;28;20210;-80
2023/07/29 12:34:59;;;;;;;1.48;1.35;;;23.40;99.90;;;;;;5051154;28;20199;-80
2023/07/29 12:37:33;;;;;;;2.30;1.42;;;23.30;99.90;;;;;;5023508;28;20205;-80
2023/07/29 12:40:06;;;;;;;2.70;1.40;;;23.30;99.90;;;;;;5029495;28;20533;-80
2023/07/29 12:42:33;;;;;;;2.35;1.52;;;23.00;99.90;;;;;;5059981;28;20205;-80
2023/07/29 12:45:05;;;;;;;1.45;1.33;;;22.80;99.90;;;;;;5039284;28;20211;-80
2023/07/29 12:47:33;;;;;;;1.50;1.30;;;22.60;99.90;;;;;;5021452;28;20230;-80
2023/07/29 12:50:09;;;;;;;2.22;1.60;;;22.60;99.90;;;;;;5032539;28;20222;-80
2023/07/29 12:52:37;;;;;;;2.05;1.40;;;22.60;99.90;;;;;;5047605;28;20190;-80
2023/07/29 12:55:12;;;;;;;2.42;1.55;;;22.60;99.90;;;;;;5046713;28;20199;-80
2023/07/29 12:57:42;;;;;;;1.90;1.63;;;22.80;99.90;;;;;;5050391;28;20225;-80
2023/07/29 13:00:10;;;;;;;4.53;1.65;;;23.20;99.90;;;;;;5031774;28;20195;-80
2023/07/29 13:02:38;;;;;;;2.83;1.67;;;23.60;99.90;;;;;;5037835;28;20202;-80